Time;durP1;ratioP1;P1;durP2;ratioP2;P2;SDS_P1;SDS_P2;PMS_P1;PMS_P2;Temp;Humidity;BMP_temperature;BMP_pressure;BME280_temperature;BME280_humidity;BME280_pressure;Samples;Min_cycle;Max_cycle;Signal;HPM_P1;HPM_P2
2023/01/30 00:01:03;;;;;;;56.88;35.60;;;5.50;99.90;;;;;;5052587;28;20060;-83
2023/01/30 00:03:29;;;;;;;50.25;33.22;;;5.50;99.90;;;;;;5051078;28;20025;-81
2023/01/30 00:05:54;;;;;;;47.00;32.53;;;5.50;99.90;;;;;;5051100;28;20023;-81
2023/01/30 00:08:20;;;;;;;46.83;32.92;;;5.50;99.90;;;;;;5052567;28;20100;-81
2023/01/30 00:10:46;;;;;;;52.05;31.63;;;5.50;99.90;;;;;;5051431;28;20017;-81
2023/01/30 00:13:13;;;;;;;51.90;32.58;;;5.50;99.90;;;;;;5049105;28;20086;-83
2023/01/30 00:15:39;;;;;;;57.33;34.88;;;5.50;99.90;;;;;;5026907;28;20025;-82
2023/01/30 00:18:04;;;;;;;52.50;34.55;;;5.60;99.90;;;;;;5031208;28;20114;-82
2023/01/30 00:20:30;;;;;;;56.30;35.92;;;5.60;99.90;;;;;;5031923;28;20084;-83
2023/01/30 00:22:57;;;;;;;60.10;36.58;;;5.50;99.90;;;;;;5030984;28;20021;-82
2023/01/30 00:25:23;;;;;;;54.95;35.10;;;5.60;99.90;;;;;;5030970;28;20033;-82
2023/01/30 00:27:49;;;;;;;57.85;35.88;;;5.60;99.90;;;;;;5031962;28;20026;-81
2023/01/30 00:30:14;;;;;;;60.17;37.50;;;5.60;99.90;;;;;;5031004;28;20040;-81
2023/01/30 00:32:40;;;;;;;58.70;38.90;;;5.60;99.90;;;;;;5031147;28;20022;-83
2023/01/30 00:35:06;;;;;;;54.25;34.50;;;5.60;99.90;;;;;;5031243;28;20077;-81
2023/01/30 00:37:32;;;;;;;60.35;37.42;;;5.60;99.90;;;;;;5027889;28;20036;-81
2023/01/30 00:39:57;;;;;;;61.13;38.40;;;5.60;99.90;;;;;;5029353;28;20029;-81
2023/01/30 00:47:54;;;;;;;53.97;33.38;;;5.70;99.90;;;;;;5030069;28;20116;-81
2023/01/30 00:50:19;;;;;;;51.92;33.80;;;5.70;99.90;;;;;;5030097;28;20519;-81
2023/01/30 00:52:45;;;;;;;52.17;34.47;;;5.70;99.90;;;;;;5030826;28;20025;-82
2023/01/30 00:55:10;;;;;;;55.20;35.25;;;5.70;99.90;;;;;;5030057;28;20041;-81
2023/01/30 00:57:36;;;;;;;58.97;37.30;;;5.70;99.90;;;;;;5030339;28;20060;-81
2023/01/30 01:00:04;;;;;;;53.35;34.80;;;5.70;99.90;;;;;;5028921;28;20029;-83
2023/01/30 01:02:30;;;;;;;55.92;36.42;;;5.80;99.90;;;;;;5029586;28;20045;-82
2023/01/30 01:04:55;;;;;;;51.42;32.05;;;5.80;99.90;;;;;;5029665;28;20072;-81
2023/01/30 01:07:21;;;;;;;53.80;34.50;;;5.80;99.90;;;;;;5030978;28;20018;-82
2023/01/30 01:09:46;;;;;;;56.03;35.90;;;5.80;99.90;;;;;;5031342;28;20049;-81
2023/01/30 01:12:12;;;;;;;49.05;33.55;;;5.90;99.90;;;;;;5031507;28;20391;-83
2023/01/30 01:14:37;;;;;;;56.10;34.90;;;5.90;99.90;;;;;;5031615;28;20021;-83
2023/01/30 01:17:03;;;;;;;54.75;36.17;;;5.90;99.90;;;;;;5030637;28;20104;-82
2023/01/30 01:19:28;;;;;;;56.28;36.17;;;5.90;99.90;;;;;;5030708;28;20022;-82
2023/01/30 01:21:54;;;;;;;58.25;39.05;;;6.00;99.90;;;;;;5035464;28;20021;-82
2023/01/30 01:24:20;;;;;;;53.90;37.38;;;6.00;99.90;;;;;;5050983;28;20021;-81
2023/01/30 01:26:45;;;;;;;62.53;37.33;;;6.00;99.90;;;;;;5050692;28;20018;-81
2023/01/30 01:29:15;;;;;;;57.30;37.92;;;6.00;99.90;;;;;;5044994;28;20029;-83
2023/01/30 01:31:42;;;;;;;58.38;38.15;;;6.10;99.90;;;;;;5031034;28;20527;-82
2023/01/30 01:34:08;;;;;;;55.03;35.83;;;6.10;99.90;;;;;;5031136;28;20032;-82
2023/01/30 01:36:33;;;;;;;56.17;37.15;;;6.00;99.90;;;;;;5032217;28;20069;-82
2023/01/30 01:38:59;;;;;;;54.65;37.60;;;6.00;99.90;;;;;;5031271;28;20036;-83
2023/01/30 01:41:24;;;;;;;59.88;38.78;;;6.00;99.90;;;;;;5031854;28;20021;-83
2023/01/30 01:44:01;;;;;;;59.10;37.17;;;6.00;99.90;;;;;;5031057;28;20071;-82
2023/01/30 01:46:49;;;;;;;54.38;35.13;;;5.90;99.90;;;;;;5030194;28;20471;-83
2023/01/30 01:49:23;;;;;;;53.05;34.40;;;5.90;99.90;;;;;;5030470;28;20072;-82
2023/01/30 01:52:12;;;;;;;47.45;32.97;;;5.90;99.90;;;;;;5030497;28;20120;-83
2023/01/30 01:54:41;;;;;;;54.40;36.30;;;5.80;99.90;;;;;;5030475;28;20029;-82
2023/01/30 01:57:14;;;;;;;49.08;34.15;;;5.80;99.90;;;;;;5031625;28;20028;-82
2023/01/30 01:59:47;;;;;;;53.20;33.80;;;5.80;99.90;;;;;;5030767;28;20026;-82
2023/01/30 02:02:13;;;;;;;49.50;35.77;;;5.80;99.90;;;;;;5032966;28;20048;-81
2023/01/30 02:07:40;;;;;;;54.88;36.88;;;5.90;99.90;;;;;;5035374;28;20063;-83
2023/01/30 02:10:10;;;;;;;50.00;33.95;;;5.90;99.90;;;;;;5033936;28;20017;-81
2023/01/30 02:12:37;;;;;;;50.13;33.25;;;5.90;99.90;;;;;;5035340;28;20026;-83
2023/01/30 02:15:04;;;;;;;49.20;33.40;;;5.90;99.90;;;;;;5035183;28;20026;-82
2023/01/30 02:17:29;;;;;;;46.22;34.45;;;5.90;99.90;;;;;;5032551;28;20044;-82
2023/01/30 02:20:09;;;;;;;49.00;33.10;;;5.90;99.90;;;;;;5034982;28;20471;-83
2023/01/30 02:23:04;;;;;;;49.58;33.25;;;6.00;99.90;;;;;;5033802;28;20450;-82
2023/01/30 02:26:12;;;;;;;49.90;33.35;;;6.00;99.90;;;;;;5034170;28;20021;-83
2023/01/30 02:28:44;;;;;;;45.92;29.20;;;6.10;99.90;;;;;;5014541;28;20073;-83
2023/01/30 02:31:36;;;;;;;48.20;30.73;;;6.10;99.90;;;;;;5033411;28;20116;-83
2023/01/30 02:34:24;;;;;;;42.63;28.63;;;6.10;99.90;;;;;;5033599;28;20475;-82
2023/01/30 02:37:08;;;;;;;43.33;27.88;;;6.10;99.90;;;;;;5033526;28;20471;-82
2023/01/30 02:40:13;;;;;;;39.47;26.75;;;6.10;99.90;;;;;;5033686;28;20037;-83
2023/01/30 02:42:59;;;;;;;37.45;26.00;;;6.10;99.90;;;;;;4995879;28;20304;-82
2023/01/30 02:45:44;;;;;;;36.00;24.42;;;6.10;99.90;;;;;;5030187;28;20084;-84
2023/01/30 02:48:20;;;;;;;30.40;20.52;;;6.10;99.90;;;;;;5033016;28;20049;-83
2023/01/30 02:50:53;;;;;;;29.70;20.15;;;6.20;99.90;;;;;;5033221;28;20364;-83
2023/01/30 02:53:18;;;;;;;35.28;20.25;;;6.30;99.90;;;;;;5033362;28;20040;-83
2023/01/30 02:55:44;;;;;;;26.85;18.83;;;6.30;99.90;;;;;;5032961;28;20044;-84
2023/01/30 02:58:11;;;;;;;25.88;18.25;;;6.40;99.90;;;;;;5033142;28;20118;-84
2023/01/30 03:01:07;;;;;;;26.20;17.40;;;6.40;99.90;;;;;;5034913;28;20034;-85
2023/01/30 03:04:02;;;;;;;23.10;17.20;;;6.40;99.90;;;;;;5033084;28;20026;-83
2023/01/30 03:06:51;;;;;;;26.13;17.50;;;6.40;99.90;;;;;;5032769;28;20502;-83
2023/01/30 03:09:34;;;;;;;23.05;16.05;;;6.40;99.90;;;;;;5034038;28;20025;-83
2023/01/30 03:12:06;;;;;;;26.58;17.45;;;6.50;99.90;;;;;;5033964;28;20075;-85
2023/01/30 03:14:59;;;;;;;26.05;16.77;;;6.50;99.90;;;;;;5032830;28;20151;-85
2023/01/30 03:17:27;;;;;;;28.67;15.90;;;6.50;99.90;;;;;;5028240;28;20045;-85
2023/01/30 03:19:54;;;;;;;24.05;15.60;;;6.40;99.90;;;;;;5033789;28;20144;-85
2023/01/30 03:22:20;;;;;;;25.10;17.05;;;6.40;99.90;;;;;;5034402;28;20495;-85
2023/01/30 03:24:46;;;;;;;26.58;17.58;;;6.50;99.90;;;;;;5033788;28;20026;-83
2023/01/30 03:27:12;;;;;;;23.45;16.48;;;6.50;99.90;;;;;;5032154;28;20479;-83
2023/01/30 03:29:39;;;;;;;25.15;16.40;;;6.50;99.90;;;;;;5032810;28;20087;-84
2023/01/30 03:32:04;;;;;;;23.70;16.10;;;6.50;99.90;;;;;;5032571;28;20186;-86
2023/01/30 03:34:30;;;;;;;20.27;15.20;;;6.50;99.90;;;;;;5032345;28;20108;-85
2023/01/30 03:36:56;;;;;;;23.90;14.52;;;6.50;99.90;;;;;;5033359;28;20013;-85
2023/01/30 03:39:23;;;;;;;23.55;15.15;;;6.50;99.90;;;;;;5032417;28;20487;-85
2023/01/30 03:41:49;;;;;;;26.27;16.33;;;6.50;99.90;;;;;;5032429;28;20057;-86
2023/01/30 03:44:14;;;;;;;21.80;13.50;;;6.50;99.90;;;;;;5033467;28;20029;-84
2023/01/30 03:46:40;;;;;;;22.42;15.77;;;6.50;99.90;;;;;;5032159;28;20033;-86
2023/01/30 03:49:05;;;;;;;19.60;13.05;;;6.50;99.90;;;;;;5032365;28;20037;-84
2023/01/30 03:51:31;;;;;;;25.83;14.20;;;6.50;99.90;;;;;;5032085;28;20195;-84
2023/01/30 03:53:56;;;;;;;25.80;14.95;;;6.50;99.90;;;;;;5032224;28;20026;-84
2023/01/30 03:56:22;;;;;;;22.88;14.43;;;6.50;99.90;;;;;;5031814;28;20013;-85
2023/01/30 03:58:47;;;;;;;26.08;13.93;;;6.50;99.90;;;;;;5031755;28;20465;-84
2023/01/30 04:01:13;;;;;;;21.75;12.77;;;6.60;99.90;;;;;;5032012;28;20026;-84
2023/01/30 04:03:38;;;;;;;24.13;13.63;;;6.60;99.90;;;;;;5031877;28;20029;-85
2023/01/30 04:06:04;;;;;;;21.45;12.93;;;6.60;99.90;;;;;;5033570;28;20109;-84
2023/01/30 04:08:30;;;;;;;24.20;14.85;;;6.60;99.90;;;;;;5031773;28;20036;-85
2023/01/30 04:10:55;;;;;;;20.98;13.40;;;6.60;99.90;;;;;;5033145;28;20116;-85
2023/01/30 04:13:21;;;;;;;21.98;12.63;;;6.60;99.90;;;;;;5032120;28;20053;-86
2023/01/30 04:15:46;;;;;;;18.83;11.50;;;6.60;99.90;;;;;;5031765;28;20025;-85
2023/01/30 04:18:12;;;;;;;25.05;13.55;;;6.60;99.90;;;;;;5033065;28;20467;-85
2023/01/30 04:20:37;;;;;;;21.35;12.00;;;6.60;99.90;;;;;;5031740;28;20018;-86
2023/01/30 04:23:03;;;;;;;22.50;12.82;;;6.60;99.90;;;;;;5031885;28;20030;-85
2023/01/30 04:25:29;;;;;;;21.90;13.35;;;6.70;99.90;;;;;;5032533;28;20025;-85
2023/01/30 04:27:54;;;;;;;21.45;12.02;;;6.70;99.90;;;;;;5031719;28;20021;-86
2023/01/30 04:30:20;;;;;;;24.52;12.98;;;6.70;99.90;;;;;;5031816;28;20435;-85
2023/01/30 04:32:45;;;;;;;17.48;12.52;;;6.70;99.90;;;;;;5031576;28;20533;-85
2023/01/30 04:35:11;;;;;;;22.92;12.40;;;6.70;99.90;;;;;;5031763;28;20498;-85
2023/01/30 04:37:37;;;;;;;22.15;12.30;;;6.70;99.90;;;;;;5032829;28;20037;-86
2023/01/30 04:40:03;;;;;;;19.10;12.35;;;6.70;99.90;;;;;;5033076;28;20025;-84
2023/01/30 04:42:28;;;;;;;27.60;14.85;;;6.80;99.90;;;;;;5031861;28;20080;-84
2023/01/30 04:44:54;;;;;;;25.50;12.57;;;6.80;99.90;;;;;;5032524;28;20017;-85
2023/01/30 04:47:19;;;;;;;26.58;13.75;;;6.80;99.90;;;;;;5032482;28;20049;-84
2023/01/30 04:49:45;;;;;;;23.70;11.80;;;6.80;99.90;;;;;;5032656;28;20464;-84
2023/01/30 04:52:10;;;;;;;20.52;11.90;;;6.80;99.90;;;;;;5031362;28;20056;-86
2023/01/30 04:54:37;;;;;;;22.23;11.98;;;6.80;99.90;;;;;;5031319;28;20037;-87
2023/01/30 04:57:03;;;;;;;17.40;12.50;;;6.80;99.90;;;;;;5031299;28;20033;-85
2023/01/30 04:59:28;;;;;;;21.48;11.18;;;6.80;99.90;;;;;;5031296;28;20078;-85
2023/01/30 05:01:54;;;;;;;19.98;11.27;;;6.80;99.90;;;;;;5031381;28;20018;-87
2023/01/30 05:04:20;;;;;;;20.13;10.93;;;6.80;99.90;;;;;;5032699;28;20578;-85
2023/01/30 05:06:45;;;;;;;24.38;10.52;;;6.80;99.90;;;;;;5031134;28;20375;-84
2023/01/30 05:09:13;;;;;;;21.40;10.30;;;6.80;99.90;;;;;;5031337;28;20471;-84
2023/01/30 05:11:39;;;;;;;19.40;9.05;;;6.80;99.90;;;;;;5031048;28;20479;-85
2023/01/30 05:14:05;;;;;;;19.25;10.80;;;6.80;99.90;;;;;;5031233;28;20115;-84
2023/01/30 05:16:30;;;;;;;23.77;10.02;;;6.80;99.90;;;;;;5031368;28;20029;-84
2023/01/30 05:18:56;;;;;;;21.20;9.00;;;6.80;99.90;;;;;;5032156;28;20116;-84
2023/01/30 05:21:27;;;;;;;18.98;9.02;;;6.80;99.90;;;;;;5030876;28;20045;-85
2023/01/30 05:23:54;;;;;;;16.92;9.32;;;6.90;99.90;;;;;;5031367;28;20017;-85
2023/01/30 05:26:21;;;;;;;18.63;7.45;;;6.90;99.90;;;;;;5030981;28;20399;-85
2023/01/30 05:28:55;;;;;;;22.77;8.77;;;6.90;99.90;;;;;;5032673;28;20044;-85
2023/01/30 05:31:21;;;;;;;18.20;8.18;;;6.90;99.90;;;;;;5031126;28;20431;-84
2023/01/30 05:33:49;;;;;;;17.08;7.32;;;6.80;99.90;;;;;;5031246;28;20079;-85
2023/01/30 05:36:17;;;;;;;14.77;7.28;;;6.80;99.90;;;;;;5031895;28;20021;-85
2023/01/30 05:38:44;;;;;;;18.95;7.20;;;6.80;99.90;;;;;;5034630;28;20087;-86
2023/01/30 05:41:11;;;;;;;16.52;6.97;;;6.90;99.90;;;;;;5035847;28;20021;-85
2023/01/30 05:43:37;;;;;;;16.05;5.68;;;6.90;99.90;;;;;;5034525;28;20117;-86
2023/01/30 05:46:06;;;;;;;17.38;6.03;;;6.90;99.90;;;;;;5035711;28;20052;-85
2023/01/30 05:48:33;;;;;;;13.30;5.35;;;6.90;99.90;;;;;;5036441;28;20076;-84
2023/01/30 05:50:59;;;;;;;15.75;5.03;;;6.90;99.90;;;;;;5034744;28;20468;-84
2023/01/30 05:53:33;;;;;;;13.30;4.50;;;6.90;99.90;;;;;;5035680;28;20112;-84
2023/01/30 05:56:01;;;;;;;11.65;4.07;;;6.90;99.90;;;;;;5036564;28;20120;-84
2023/01/30 05:58:28;;;;;;;11.80;3.72;;;6.80;99.90;;;;;;5037942;28;20029;-82
2023/01/30 06:00:54;;;;;;;17.90;4.22;;;6.90;99.90;;;;;;5054537;28;20022;-84
2023/01/30 06:03:20;;;;;;;6.57;2.80;;;6.80;99.90;;;;;;5043228;28;20056;-83
2023/01/30 06:05:45;;;;;;;9.95;3.00;;;6.80;99.90;;;;;;5039447;28;20049;-83
2023/01/30 06:08:11;;;;;;;10.02;3.35;;;6.80;99.90;;;;;;5035788;28;20040;-84
2023/01/30 06:10:37;;;;;;;10.45;2.90;;;6.70;99.90;;;;;;5035424;28;20026;-86
2023/01/30 06:13:03;;;;;;;12.98;3.35;;;6.70;99.90;;;;;;5034316;28;20570;-83
2023/01/30 06:15:29;;;;;;;13.88;2.70;;;6.60;99.90;;;;;;5034817;28;20025;-85
2023/01/30 06:17:54;;;;;;;14.52;3.58;;;6.60;99.90;;;;;;5033642;28;20112;-84
2023/01/30 06:20:20;;;;;;;8.18;2.53;;;6.60;99.90;;;;;;5034142;28;20028;-84
2023/01/30 06:22:47;;;;;;;9.63;2.60;;;6.50;99.90;;;;;;5031989;28;20079;-84
2023/01/30 06:25:13;;;;;;;18.10;3.38;;;6.40;99.90;;;;;;5034460;28;20018;-84
2023/01/30 06:27:39;;;;;;;12.40;3.05;;;6.40;99.90;;;;;;5033487;28;20013;-85
2023/01/30 06:30:04;;;;;;;12.90;2.40;;;6.40;99.90;;;;;;5033468;28;20491;-85
2023/01/30 06:32:30;;;;;;;12.15;2.70;;;6.40;99.90;;;;;;5033098;28;20021;-85
2023/01/30 06:34:56;;;;;;;12.73;2.53;;;6.30;99.90;;;;;;5033742;28;20028;-83
2023/01/30 06:37:21;;;;;;;12.40;2.85;;;6.40;99.90;;;;;;5033376;28;20406;-85
2023/01/30 06:39:47;;;;;;;19.63;3.58;;;6.30;99.90;;;;;;5033384;28;20116;-84
2023/01/30 06:42:12;;;;;;;13.02;2.90;;;6.40;99.90;;;;;;5031835;28;20029;-83
2023/01/30 06:44:47;;;;;;;10.55;2.63;;;6.40;99.90;;;;;;5033174;28;20122;-85
2023/01/30 06:47:12;;;;;;;16.00;2.72;;;6.30;99.90;;;;;;5033690;28;20085;-84
2023/01/30 06:49:38;;;;;;;18.20;3.50;;;6.30;99.90;;;;;;5032939;28;20357;-83
2023/01/30 06:52:04;;;;;;;15.48;3.03;;;6.30;99.90;;;;;;5032834;28;20021;-83
2023/01/30 06:54:29;;;;;;;12.57;2.88;;;6.20;99.90;;;;;;5033013;28;20056;-83
2023/01/30 06:56:55;;;;;;;16.30;2.63;;;6.10;99.90;;;;;;5032728;28;20022;-84
2023/01/30 06:59:20;;;;;;;12.05;2.70;;;6.00;99.90;;;;;;5032014;28;20045;-83
2023/01/30 07:01:46;;;;;;;14.80;2.30;;;6.00;99.90;;;;;;5030117;28;20108;-84
2023/01/30 07:04:11;;;;;;;19.80;3.22;;;5.90;99.90;;;;;;5029260;28;20108;-83
2023/01/30 07:06:37;;;;;;;14.57;2.55;;;5.80;99.90;;;;;;5031495;28;20549;-83
2023/01/30 07:09:03;;;;;;;13.82;2.70;;;5.80;99.90;;;;;;5029371;28;20430;-83
2023/01/30 07:11:29;;;;;;;12.80;2.70;;;5.70;99.90;;;;;;5031880;28;20079;-84
2023/01/30 07:13:56;;;;;;;13.52;2.78;;;5.70;99.90;;;;;;5031942;28;20056;-84
2023/01/30 07:16:27;;;;;;;22.02;3.47;;;5.70;99.90;;;;;;5033211;28;20407;-84
2023/01/30 07:18:59;;;;;;;18.60;3.17;;;5.70;99.90;;;;;;5032186;28;20033;-84
2023/01/30 07:21:26;;;;;;;16.65;2.58;;;5.70;99.90;;;;;;5032139;28;20069;-84
2023/01/30 07:23:51;;;;;;;13.93;2.13;;;5.70;99.90;;;;;;5031948;28;20068;-86
2023/01/30 07:26:17;;;;;;;18.70;3.00;;;5.60;99.90;;;;;;5032152;28;20460;-82
2023/01/30 07:28:42;;;;;;;16.30;3.08;;;5.60;99.90;;;;;;5032167;28;20029;-84
2023/01/30 07:31:08;;;;;;;23.90;3.40;;;5.60;99.90;;;;;;5033253;28;20033;-83
2023/01/30 07:33:33;;;;;;;22.05;4.03;;;5.60;99.90;;;;;;5030277;28;20491;-84
2023/01/30 07:35:59;;;;;;;12.60;3.55;;;5.60;99.90;;;;;;5030618;28;20075;-84
2023/01/30 07:38:25;;;;;;;18.60;3.15;;;5.50;99.90;;;;;;5028683;28;20036;-84
2023/01/30 07:40:50;;;;;;;16.17;3.53;;;5.60;99.90;;;;;;5030856;28;20036;-83
2023/01/30 07:43:16;;;;;;;18.00;3.03;;;5.60;99.90;;;;;;5028820;28;20108;-82
2023/01/30 07:45:44;;;;;;;21.98;4.30;;;5.70;99.90;;;;;;5030573;28;20083;-83
2023/01/30 07:48:12;;;;;;;19.83;3.08;;;5.70;99.90;;;;;;5028985;28;20052;-81
2023/01/30 07:50:38;;;;;;;17.85;3.20;;;5.70;99.90;;;;;;5029026;28;20115;-84
2023/01/30 07:53:06;;;;;;;20.20;2.85;;;5.80;99.90;;;;;;5028955;28;20029;-84
2023/01/30 07:55:32;;;;;;;15.73;2.75;;;5.70;99.90;;;;;;5029333;28;20026;-84
2023/01/30 07:57:58;;;;;;;19.90;3.35;;;5.70;99.90;;;;;;5030023;28;20080;-83
2023/01/30 08:00:24;;;;;;;19.10;3.03;;;5.60;99.90;;;;;;5030887;28;20029;-82
2023/01/30 08:02:49;;;;;;;18.65;3.03;;;5.60;99.90;;;;;;5028456;28;20033;-87
2023/01/30 08:05:15;;;;;;;18.65;3.20;;;5.60;99.90;;;;;;5026538;28;20126;-82
2023/01/30 08:07:41;;;;;;;20.48;3.60;;;5.60;99.90;;;;;;5027744;28;20080;-80
2023/01/30 08:10:07;;;;;;;22.27;3.67;;;5.60;99.90;;;;;;5028396;28;20021;-83
2023/01/30 08:12:32;;;;;;;23.00;3.60;;;5.60;99.90;;;;;;5030102;28;20120;-84
2023/01/30 08:14:58;;;;;;;18.45;3.53;;;5.60;99.90;;;;;;5032153;28;20129;-82
2023/01/30 08:17:24;;;;;;;18.10;3.50;;;5.60;99.90;;;;;;5027333;28;20013;-85
2023/01/30 08:19:49;;;;;;;20.85;3.17;;;5.60;99.90;;;;;;5026399;28;20020;-84
2023/01/30 08:22:15;;;;;;;19.75;3.03;;;5.60;99.90;;;;;;5026353;28;20025;-83
2023/01/30 08:24:41;;;;;;;19.70;3.45;;;5.70;99.90;;;;;;5027279;28;20029;-82
2023/01/30 08:27:07;;;;;;;17.40;3.50;;;5.70;99.90;;;;;;5026269;28;20021;-83
2023/01/30 08:29:32;;;;;;;21.27;3.40;;;5.70;99.90;;;;;;5029549;28;20163;-83
2023/01/30 08:31:59;;;;;;;17.70;3.50;;;5.70;99.90;;;;;;5027206;28;20033;-82
2023/01/30 08:34:25;;;;;;;19.35;2.97;;;5.70;99.90;;;;;;5028436;28;20494;-83
2023/01/30 08:36:51;;;;;;;20.15;3.28;;;5.80;99.90;;;;;;5027058;28;20025;-82
2023/01/30 08:39:16;;;;;;;24.73;5.90;;;5.80;99.90;;;;;;5025120;28;20029;-83
2023/01/30 08:41:42;;;;;;;19.08;3.13;;;5.90;99.90;;;;;;5026875;28;20025;-83
2023/01/30 08:44:11;;;;;;;21.23;3.85;;;5.90;99.90;;;;;;5029796;28;20029;-83
2023/01/30 08:46:37;;;;;;;22.77;3.30;;;6.00;99.90;;;;;;5030012;28;20038;-82
2023/01/30 08:49:04;;;;;;;17.05;3.20;;;6.00;99.90;;;;;;5031840;28;20079;-83
2023/01/30 08:51:30;;;;;;;17.83;3.70;;;6.10;99.90;;;;;;5030556;28;20022;-82
2023/01/30 08:53:55;;;;;;;19.80;4.18;;;6.20;99.90;;;;;;5030175;28;20025;-84
2023/01/30 08:56:21;;;;;;;12.82;3.08;;;6.20;99.90;;;;;;5031506;28;20124;-85
2023/01/30 08:58:47;;;;;;;23.13;3.05;;;6.30;99.90;;;;;;5030049;28;20033;-84
2023/01/30 09:01:14;;;;;;;20.85;2.53;;;6.40;99.90;;;;;;5031395;28;20119;-84
2023/01/30 09:03:40;;;;;;;19.60;3.45;;;6.40;99.90;;;;;;5031579;28;20025;-82
2023/01/30 09:06:06;;;;;;;23.23;3.42;;;6.50;99.90;;;;;;5031431;28;20034;-82
2023/01/30 09:08:32;;;;;;;21.10;3.05;;;6.60;99.90;;;;;;5031024;28;20052;-82
2023/01/30 09:11:03;;;;;;;18.25;3.10;;;6.70;99.90;;;;;;5033918;28;20029;-83
2023/01/30 09:13:29;;;;;;;18.63;3.10;;;6.90;99.90;;;;;;5034089;28;20434;-84
2023/01/30 09:15:56;;;;;;;17.58;3.40;;;7.10;99.90;;;;;;5034334;28;20451;-83
2023/01/30 09:18:23;;;;;;;19.67;3.90;;;7.20;99.90;;;;;;5034023;28;20035;-83
2023/01/30 09:20:48;;;;;;;19.35;3.33;;;7.20;99.90;;;;;;5019521;28;20159;-84
2023/01/30 09:23:14;;;;;;;18.65;3.42;;;7.20;99.90;;;;;;5035754;28;20482;-80
2023/01/30 09:25:40;;;;;;;17.88;3.65;;;7.10;99.90;;;;;;5035345;28;20028;-81
2023/01/30 09:28:06;;;;;;;19.40;3.00;;;7.10;99.90;;;;;;5034015;28;20373;-83
2023/01/30 09:30:32;;;;;;;14.98;2.63;;;7.10;99.90;;;;;;5035241;28;20171;-84
2023/01/30 09:32:58;;;;;;;16.83;3.20;;;7.10;99.90;;;;;;5033940;28;20490;-83
2023/01/30 09:35:23;;;;;;;16.83;3.47;;;7.10;99.90;;;;;;5033681;28;20040;-82
2023/01/30 09:37:50;;;;;;;23.27;2.85;;;7.20;99.90;;;;;;5034048;28;20379;-83
2023/01/30 09:40:22;;;;;;;17.70;2.90;;;7.20;99.90;;;;;;5034013;28;20025;-82
2023/01/30 09:43:03;;;;;;;20.85;3.17;;;7.20;99.90;;;;;;5033562;28;20075;-82
2023/01/30 09:45:49;;;;;;;15.18;3.05;;;7.10;99.90;;;;;;5034182;28;20035;-80
2023/01/30 09:48:37;;;;;;;20.35;5.03;;;7.10;99.90;;;;;;5026138;28;20052;-81
2023/01/30 09:51:18;;;;;;;16.75;3.25;;;7.10;99.90;;;;;;5019581;28;20032;-81
2023/01/30 09:54:09;;;;;;;23.27;3.80;;;7.10;99.90;;;;;;5034206;28;20032;-81
2023/01/30 09:56:35;;;;;;;14.98;2.78;;;7.10;99.90;;;;;;5033442;28;20049;-82
2023/01/30 09:59:03;;;;;;;19.88;3.13;;;7.10;99.90;;;;;;5034904;28;20503;-81
2023/01/30 10:01:33;;;;;;;16.20;3.80;;;7.20;99.90;;;;;;5033981;28;20345;-81
2023/01/30 10:04:38;;;;;;;15.02;3.22;;;7.20;99.90;;;;;;5035070;28;20029;-81
2023/01/30 10:07:23;;;;;;;21.35;3.70;;;7.30;99.90;;;;;;5007767;28;20037;-80
2023/01/30 10:10:03;;;;;;;20.88;3.05;;;7.80;99.90;;;;;;5033683;28;20064;-81
2023/01/30 10:12:41;;;;;;;14.55;3.17;;;7.80;99.90;;;;;;5034402;28;20013;-82
2023/01/30 10:15:13;;;;;;;14.85;3.30;;;7.80;99.90;;;;;;5034188;28;20372;-84
2023/01/30 10:18:05;;;;;;;22.00;3.75;;;7.80;99.90;;;;;;5034476;28;20063;-81
2023/01/30 10:21:06;;;;;;;20.02;3.17;;;7.80;99.90;;;;;;5033991;28;20589;-83
2023/01/30 10:23:39;;;;;;;15.88;3.08;;;7.90;99.90;;;;;;4998124;28;20077;-82
2023/01/30 10:26:20;;;;;;;20.88;2.75;;;7.90;99.90;;;;;;5045210;28;20022;-81
2023/01/30 10:29:04;;;;;;;17.08;2.88;;;7.80;99.90;;;;;;5049570;28;20044;-82
2023/01/30 10:31:38;;;;;;;16.95;3.70;;;7.70;99.90;;;;;;5050632;28;20040;-82
2023/01/30 10:34:09;;;;;;;17.20;2.63;;;7.60;99.90;;;;;;5036350;28;20022;-82
2023/01/30 10:37:00;;;;;;;16.95;2.95;;;7.50;99.90;;;;;;5033803;28;20075;-80
2023/01/30 10:39:55;;;;;;;17.52;2.88;;;7.50;99.90;;;;;;5032637;28;20034;-82
2023/01/30 10:42:38;;;;;;;17.90;3.03;;;7.40;99.90;;;;;;5033970;28;20044;-83
2023/01/30 10:45:14;;;;;;;18.30;3.00;;;7.40;99.90;;;;;;5019519;28;20100;-82
2023/01/30 10:47:54;;;;;;;17.00;3.65;;;7.40;99.90;;;;;;5033750;28;20049;-82
2023/01/30 10:50:27;;;;;;;21.48;2.90;;;7.40;99.90;;;;;;5032972;28;20029;-83
2023/01/30 10:53:14;;;;;;;17.27;4.30;;;7.50;99.90;;;;;;5018291;28;20064;-82
2023/01/30 10:56:12;;;;;;;15.02;3.03;;;7.50;99.90;;;;;;5033435;28;20105;-82
2023/01/30 10:59:02;;;;;;;11.10;2.55;;;7.60;99.90;;;;;;5033625;28;20120;-81
2023/01/30 11:01:42;;;;;;;19.08;3.78;;;7.60;99.90;;;;;;5031758;28;20496;-79
2023/01/30 11:04:25;;;;;;;21.00;3.45;;;7.60;99.90;;;;;;5031366;28;20028;-80
2023/01/30 11:06:53;;;;;;;17.40;3.20;;;7.60;99.90;;;;;;5021103;28;20010;-80
2023/01/30 11:09:18;;;;;;;15.10;3.20;;;7.70;99.90;;;;;;5033119;28;20022;-80
2023/01/30 11:11:52;;;;;;;17.63;3.10;;;7.90;99.90;;;;;;5033052;28;20029;-82
2023/01/30 11:14:18;;;;;;;15.35;2.70;;;8.20;99.90;;;;;;5031016;28;20029;-79
2023/01/30 11:16:54;;;;;;;15.55;2.83;;;8.20;99.90;;;;;;5033051;28;20025;-81
2023/01/30 11:19:29;;;;;;;16.45;3.13;;;8.20;99.90;;;;;;5031812;28;20052;-80
2023/01/30 11:22:00;;;;;;;15.52;3.22;;;8.30;99.90;;;;;;5031488;28;20021;-81
2023/01/30 11:24:37;;;;;;;20.80;3.75;;;8.50;99.90;;;;;;5031303;28;20033;-82
2023/01/30 11:27:11;;;;;;;17.17;2.58;;;9.30;99.90;;;;;;5032792;28;20486;-81
2023/01/30 11:29:39;;;;;;;15.85;3.13;;;10.20;99.90;;;;;;5031975;28;20051;-82
2023/01/30 11:32:12;;;;;;;22.13;3.42;;;10.60;99.90;;;;;;5029659;28;20021;-80
2023/01/30 11:34:40;;;;;;;16.27;3.40;;;10.30;99.90;;;;;;5030435;28;20026;-81
2023/01/30 11:37:30;;;;;;;16.75;2.58;;;10.10;99.90;;;;;;5028217;28;20511;-81
2023/01/30 11:39:56;;;;;;;20.10;3.55;;;10.30;99.90;;;;;;5028834;28;20683;-82
2023/01/30 11:42:28;;;;;;;17.60;3.22;;;11.30;99.90;;;;;;5029974;28;20030;-81
2023/01/30 11:44:59;;;;;;;11.75;2.75;;;11.60;99.90;;;;;;5027327;28;20032;-81
2023/01/30 11:47:28;;;;;;;12.70;2.83;;;11.30;99.90;;;;;;5027407;28;20044;-81
2023/01/30 11:49:57;;;;;;;14.15;3.30;;;11.70;99.90;;;;;;5028249;28;20621;-80
2023/01/30 11:52:27;;;;;;;16.55;3.85;;;11.80;99.90;;;;;;5028435;28;20387;-80
2023/01/30 11:54:59;;;;;;;13.80;2.60;;;11.40;99.90;;;;;;5021594;28;20029;-80
2023/01/30 11:57:26;;;;;;;13.23;2.72;;;11.10;99.90;;;;;;5027891;28;20022;-83
2023/01/30 11:59:57;;;;;;;15.15;3.03;;;11.00;99.90;;;;;;5028036;28;20052;-81
2023/01/30 12:02:32;;;;;;;14.65;2.88;;;11.50;99.90;;;;;;5029358;28;20029;-80
2023/01/30 12:05:15;;;;;;;15.50;3.35;;;11.70;99.90;;;;;;5029893;28;20033;-82
2023/01/30 12:07:45;;;;;;;10.73;3.05;;;11.50;99.90;;;;;;5026934;28;20395;-82
2023/01/30 12:10:22;;;;;;;14.52;3.15;;;11.10;99.90;;;;;;5030379;28;20437;-82
2023/01/30 12:12:51;;;;;;;13.25;2.85;;;10.90;99.90;;;;;;5031627;28;20021;-85
2023/01/30 12:15:28;;;;;;;16.17;3.22;;;10.70;99.90;;;;;;5030700;28;20352;-83
2023/01/30 12:18:26;;;;;;;12.55;2.72;;;10.80;99.90;;;;;;5031265;28;20040;-84
2023/01/30 12:20:58;;;;;;;13.80;2.92;;;10.80;99.90;;;;;;5027478;28;20537;-83
2023/01/30 12:23:43;;;;;;;15.30;2.85;;;10.70;99.90;;;;;;5030086;28;20013;-83
2023/01/30 12:26:19;;;;;;;15.65;3.60;;;10.30;99.90;;;;;;5031558;28;20124;-83
2023/01/30 12:28:53;;;;;;;15.13;3.40;;;9.90;99.90;;;;;;5030021;28;20021;-81
2023/01/30 12:31:26;;;;;;;12.43;2.95;;;9.60;99.90;;;;;;5019148;28;20104;-81
2023/01/30 12:33:54;;;;;;;17.20;3.05;;;9.40;99.90;;;;;;5029481;28;20181;-82
2023/01/30 12:36:52;;;;;;;17.67;3.70;;;9.20;99.90;;;;;;5024725;28;20787;-81
2023/01/30 12:39:24;;;;;;;12.75;3.00;;;9.10;99.90;;;;;;5027259;28;20047;-82
2023/01/30 12:42:22;;;;;;;15.93;3.05;;;9.00;99.90;;;;;;5030496;28;20025;-81
2023/01/30 12:45:05;;;;;;;14.90;2.58;;;9.00;99.90;;;;;;5028867;28;20132;-80
2023/01/30 12:47:36;;;;;;;13.63;3.10;;;8.90;99.90;;;;;;5030409;28;20163;-80
2023/01/30 12:50:11;;;;;;;14.93;3.53;;;8.80;99.90;;;;;;5029087;28;20041;-80
2023/01/30 12:53:08;;;;;;;15.45;3.35;;;8.70;99.90;;;;;;5029266;28;20025;-81
2023/01/30 12:55:56;;;;;;;14.48;3.17;;;8.70;99.90;;;;;;5028423;28;20028;-84
2023/01/30 12:58:48;;;;;;;15.68;2.70;;;8.80;99.90;;;;;;5029748;28;20491;-83
2023/01/30 13:01:32;;;;;;;20.70;3.65;;;8.90;99.90;;;;;;5030953;28;20460;-81
2023/01/30 13:04:00;;;;;;;18.83;3.28;;;8.90;99.90;;;;;;5028968;28;20113;-80
2023/01/30 13:06:41;;;;;;;15.07;3.33;;;8.80;99.90;;;;;;5026524;28;20443;-82
2023/01/30 13:09:29;;;;;;;15.68;3.05;;;8.80;99.90;;;;;;5025983;28;21272;-81